createdAt,value
2022-10-09T00:01:23.215Z,16.30
2022-10-09T00:03:53.185Z,16.20
2022-10-09T00:06:23.127Z,16.20
2022-10-09T00:08:51.902Z,16.20
2022-10-09T00:11:22.169Z,16.20
2022-10-09T00:13:52.011Z,16.20
2022-10-09T00:16:22.793Z,16.10
2022-10-09T00:18:52.003Z,16.10
2022-10-09T00:21:23.255Z,16.10
2022-10-09T00:23:52.544Z,16.00
2022-10-09T00:26:20.985Z,16.00
2022-10-09T00:28:49.571Z,16.00
2022-10-09T00:31:18.684Z,16.00
2022-10-09T00:33:48.887Z,16.00
2022-10-09T00:36:20.027Z,16.10
2022-10-09T00:38:48.369Z,16.00
2022-10-09T00:41:19.001Z,16.00
2022-10-09T00:43:49.867Z,16.00
2022-10-09T00:46:29.584Z,16.00
2022-10-09T00:49:06.967Z,16.00
2022-10-09T00:51:36.009Z,16.00
2022-10-09T00:54:06.364Z,16.00
2022-10-09T00:56:35.951Z,16.00
2022-10-09T00:59:04.965Z,16.00
2022-10-09T01:01:33.222Z,16.00
2022-10-09T01:04:02.839Z,16.00
2022-10-09T01:06:44.372Z,15.90
2022-10-09T01:09:15.815Z,15.90
2022-10-09T01:11:52.864Z,15.90
2022-10-09T01:14:27.270Z,15.90
2022-10-09T01:17:02.908Z,15.90
2022-10-09T01:19:52.160Z,15.90
2022-10-09T01:22:34.016Z,15.90
2022-10-09T01:25:07.346Z,16.00
2022-10-09T01:27:38.744Z,15.90
2022-10-09T01:30:10.249Z,16.00
2022-10-09T01:32:42.597Z,15.90
2022-10-09T01:35:13.550Z,15.90
2022-10-09T01:37:43.501Z,15.90
2022-10-09T01:40:13.776Z,16.00
2022-10-09T01:42:43.617Z,15.90
2022-10-09T01:45:13.184Z,15.90
2022-10-09T01:47:41.494Z,15.90
2022-10-09T01:50:16.713Z,15.90
2022-10-09T01:52:51.298Z,15.90
2022-10-09T01:55:33.493Z,15.90
2022-10-09T01:58:08.565Z,15.90
2022-10-09T02:00:40.766Z,15.90
2022-10-09T02:03:14.503Z,15.90
2022-10-09T02:05:44.639Z,15.90
2022-10-09T02:08:15.349Z,15.90
2022-10-09T02:10:45.544Z,15.80
2022-10-09T02:13:15.247Z,15.80
2022-10-09T02:15:49.551Z,15.80
2022-10-09T02:18:24.588Z,15.80
2022-10-09T02:21:01.485Z,15.80
2022-10-09T02:23:30.884Z,15.80
2022-10-09T02:25:59.934Z,15.80
2022-10-09T02:28:30.531Z,15.80
2022-10-09T02:31:04.877Z,15.70
2022-10-09T02:33:34.013Z,15.70
2022-10-09T02:36:03.547Z,15.80
2022-10-09T02:38:31.719Z,15.70
2022-10-09T02:41:00.670Z,15.80
2022-10-09T02:43:30.476Z,15.70
2022-10-09T02:45:58.662Z,15.70
2022-10-09T02:48:26.877Z,15.70
2022-10-09T02:50:55.070Z,15.70
2022-10-09T02:53:23.683Z,15.70
2022-10-09T02:55:51.863Z,15.70
2022-10-09T02:58:20.109Z,15.70
2022-10-09T03:00:51.243Z,15.60
2022-10-09T03:03:20.050Z,15.70
2022-10-09T03:05:48.791Z,15.60
2022-10-09T03:08:16.963Z,15.70
2022-10-09T03:10:45.190Z,15.70
2022-10-09T03:13:13.395Z,15.60
2022-10-09T03:15:41.685Z,15.60
2022-10-09T03:18:11.424Z,15.60
2022-10-09T03:20:39.923Z,15.60
2022-10-09T03:23:08.222Z,15.60
2022-10-09T03:25:36.826Z,15.60
2022-10-09T03:28:05.067Z,15.60
2022-10-09T03:30:33.320Z,15.60
2022-10-09T03:33:01.529Z,15.50
2022-10-09T03:35:31.152Z,15.50
2022-10-09T03:37:59.350Z,15.50
2022-10-09T03:40:27.515Z,15.50
2022-10-09T03:42:55.702Z,15.50
2022-10-09T03:45:23.899Z,15.50
2022-10-09T03:47:52.071Z,15.50
2022-10-09T03:50:20.195Z,15.50
2022-10-09T03:52:50.142Z,15.40
2022-10-09T03:55:18.829Z,15.40
2022-10-09T03:57:47.038Z,15.40
2022-10-09T04:00:16.652Z,15.30
2022-10-09T04:02:44.943Z,15.30
2022-10-09T04:05:13.150Z,15.30
2022-10-09T04:07:41.302Z,15.30
2022-10-09T04:10:11.594Z,15.30
2022-10-09T04:12:39.852Z,15.30
2022-10-09T04:15:09.462Z,15.30
2022-10-09T04:17:38.057Z,15.20
2022-10-09T04:20:06.673Z,15.20
2022-10-09T04:22:34.831Z,15.20
2022-10-09T04:25:03.142Z,15.20
2022-10-09T04:27:32.662Z,15.10
2022-10-09T04:30:00.927Z,15.10
2022-10-09T04:32:29.110Z,15.10
2022-10-09T04:34:57.339Z,15.10
2022-10-09T04:37:25.526Z,15.10
2022-10-09T04:39:53.713Z,15.00
2022-10-09T04:42:21.921Z,15.00
2022-10-09T04:44:51.644Z,15.10
2022-10-09T04:47:19.853Z,15.10
2022-10-09T04:49:48.493Z,15.10
2022-10-09T04:52:16.651Z,15.10
2022-10-09T04:54:44.851Z,15.10
2022-10-09T04:57:13.021Z,15.10
2022-10-09T04:59:41.212Z,15.10
2022-10-09T05:02:10.823Z,15.10
2022-10-09T05:04:39.040Z,15.10
2022-10-09T05:07:07.188Z,15.20
2022-10-09T05:09:35.375Z,15.10
2022-10-09T05:12:03.593Z,15.20
2022-10-09T05:14:31.749Z,15.20
2022-10-09T05:17:23.352Z,15.20
2022-10-09T05:19:53.131Z,15.20
2022-10-09T05:22:21.378Z,15.20
2022-10-09T05:24:49.550Z,15.10
2022-10-09T05:27:17.757Z,15.10
2022-10-09T05:29:46.140Z,15.10
2022-10-09T05:32:14.743Z,15.10
2022-10-09T05:34:43.158Z,15.10
2022-10-09T05:37:12.715Z,15.10
2022-10-09T05:39:40.863Z,15.10
2022-10-09T05:42:09.119Z,15.10
2022-10-09T05:44:37.343Z,15.10
2022-10-09T05:47:05.638Z,15.20
2022-10-09T05:49:33.867Z,15.20
2022-10-09T05:52:02.213Z,15.30
2022-10-09T05:54:31.854Z,15.40
2022-10-09T05:57:00.088Z,15.50
2022-10-09T05:59:28.477Z,15.50
2022-10-09T06:01:56.824Z,15.60
2022-10-09T06:04:26.450Z,15.70
2022-10-09T06:06:55.567Z,15.80
2022-10-09T06:09:25.742Z,15.90
2022-10-09T06:11:56.591Z,16.00
2022-10-09T06:14:26.129Z,16.00
2022-10-09T06:16:54.341Z,16.10
2022-10-09T06:19:23.040Z,16.20
2022-10-09T06:21:51.910Z,16.30
2022-10-09T06:24:28.327Z,16.30
2022-10-09T06:26:59.286Z,16.40
2022-10-09T06:29:27.972Z,16.50
2022-10-09T06:31:56.647Z,16.60
2022-10-09T06:34:25.262Z,16.70
2022-10-09T06:36:53.545Z,16.70
2022-10-09T06:39:22.597Z,16.80
2022-10-09T06:41:50.805Z,16.90
2022-10-09T06:44:20.565Z,17.00
2022-10-09T06:46:51.002Z,17.00
2022-10-09T06:49:19.263Z,17.10
2022-10-09T06:51:47.983Z,17.20
2022-10-09T06:54:17.442Z,17.30
2022-10-09T06:56:46.116Z,17.40
2022-10-09T06:59:14.443Z,17.40
2022-10-09T07:01:44.102Z,17.50
2022-10-09T07:04:17.792Z,17.60
2022-10-09T07:06:48.035Z,17.70
2022-10-09T07:09:17.358Z,17.80
2022-10-09T07:11:48.987Z,17.80
2022-10-09T07:14:17.596Z,17.90
2022-10-09T07:16:49.735Z,18.00
2022-10-09T07:19:19.352Z,18.10
2022-10-09T07:21:49.863Z,18.20
2022-10-09T07:24:20.614Z,18.30
2022-10-09T07:26:49.583Z,18.30
2022-10-09T07:29:19.711Z,18.40
2022-10-09T07:31:49.916Z,18.50
2022-10-09T07:34:18.349Z,18.50
2022-10-09T07:36:46.537Z,18.60
2022-10-09T07:39:14.981Z,18.70
2022-10-09T07:41:43.373Z,18.70
2022-10-09T07:44:12.148Z,18.80
2022-10-09T07:46:40.435Z,18.90
2022-10-09T07:49:10.061Z,18.90
2022-10-09T07:51:38.310Z,19.00
2022-10-09T07:54:06.613Z,19.00
2022-10-09T07:56:37.929Z,19.10
2022-10-09T07:59:07.850Z,19.10
2022-10-09T08:01:37.149Z,19.20
2022-10-09T08:04:06.215Z,19.20
2022-10-09T08:06:36.750Z,19.30
2022-10-09T08:09:06.619Z,19.30
2022-10-09T08:11:35.264Z,19.30
2022-10-09T08:14:03.508Z,19.40
2022-10-09T08:16:33.039Z,19.40
2022-10-09T08:19:02.667Z,19.40
2022-10-09T08:21:32.997Z,19.50
2022-10-09T08:24:02.687Z,19.50
2022-10-09T08:26:32.248Z,19.50
2022-10-09T08:29:02.873Z,19.50
2022-10-09T08:31:32.539Z,19.60
2022-10-09T08:34:02.830Z,19.60
2022-10-09T08:36:31.692Z,19.60
2022-10-09T08:39:00.508Z,19.70
2022-10-09T08:41:40.792Z,19.70
2022-10-09T08:44:14.817Z,19.80
2022-10-09T08:46:52.764Z,19.80
2022-10-09T08:49:26.068Z,19.90
2022-10-09T08:51:55.718Z,20.00
2022-10-09T08:54:32.638Z,20.00
2022-10-09T08:57:05.133Z,20.10
2022-10-09T08:59:33.491Z,20.20
2022-10-09T09:02:13.518Z,20.20
2022-10-09T09:04:55.338Z,20.30
2022-10-09T09:07:32.184Z,20.40
2022-10-09T09:10:06.780Z,20.40
2022-10-09T09:12:44.181Z,20.50
2022-10-09T09:15:27.854Z,20.50
2022-10-09T09:18:04.844Z,20.50
2022-10-09T09:20:39.792Z,20.50
2022-10-09T09:23:15.125Z,20.40
2022-10-09T09:25:45.889Z,20.50
2022-10-09T09:28:21.308Z,20.60
2022-10-09T09:30:55.608Z,20.60
2022-10-09T09:33:36.152Z,20.70
2022-10-09T09:36:10.234Z,20.70
2022-10-09T09:39:02.409Z,20.70
2022-10-09T09:41:29.004Z,20.70
2022-10-09T09:43:58.699Z,20.80
2022-10-09T09:46:31.518Z,20.80
2022-10-09T09:48:59.816Z,20.80
2022-10-09T09:51:31.284Z,20.90
2022-10-09T09:54:01.538Z,20.90
2022-10-09T09:56:59.760Z,20.90
2022-10-09T09:59:34.205Z,20.90
2022-10-09T10:02:04.970Z,20.90
2022-10-09T10:04:33.944Z,20.90
2022-10-09T10:07:02.625Z,21.00
2022-10-09T10:09:31.914Z,20.90
2022-10-09T10:12:01.981Z,21.00
2022-10-09T10:14:32.717Z,21.00
2022-10-09T10:17:02.077Z,21.00
2022-10-09T10:19:34.935Z,21.00
2022-10-09T10:22:05.089Z,21.10
2022-10-09T10:24:36.691Z,21.10
2022-10-09T10:27:09.456Z,21.10
2022-10-09T10:29:41.488Z,21.20
2022-10-09T10:32:16.567Z,21.20
2022-10-09T10:34:50.743Z,21.20
2022-10-09T10:37:31.812Z,21.30
2022-10-09T10:40:04.842Z,21.30
2022-10-09T10:42:43.403Z,21.30
2022-10-09T10:45:17.249Z,21.40
2022-10-09T10:47:51.363Z,21.40
2022-10-09T10:50:21.843Z,21.40
2022-10-09T10:53:02.011Z,21.40
2022-10-09T10:55:41.547Z,21.40
2022-10-09T10:58:23.436Z,21.50
2022-10-09T11:01:00.914Z,21.50
2022-10-09T11:03:43.289Z,21.50
2022-10-09T11:06:18.522Z,21.50
2022-10-09T11:09:04.066Z,21.60
2022-10-09T11:11:40.186Z,21.60
2022-10-09T11:14:22.619Z,21.60
2022-10-09T11:17:02.386Z,21.70
2022-10-09T11:19:53.066Z,21.60
2022-10-09T11:22:38.854Z,21.60
2022-10-09T11:25:22.472Z,21.60
2022-10-09T11:27:54.197Z,21.70
2022-10-09T11:30:23.016Z,21.70
2022-10-09T11:33:00.895Z,21.70
2022-10-09T11:35:35.031Z,21.70
2022-10-09T11:38:07.918Z,21.70
2022-10-09T11:40:40.712Z,21.70
2022-10-09T11:43:18.690Z,21.70
2022-10-09T11:45:54.320Z,21.70
2022-10-09T11:48:36.302Z,21.70
2022-10-09T11:51:13.759Z,21.70
2022-10-09T11:53:43.066Z,21.70
2022-10-09T11:56:22.263Z,21.70
2022-10-09T11:58:58.655Z,21.70
2022-10-09T12:01:30.827Z,21.80
2022-10-09T12:04:07.812Z,21.80
2022-10-09T12:06:47.729Z,21.80
2022-10-09T12:09:23.893Z,21.80
2022-10-09T12:11:59.311Z,21.80
2022-10-09T12:14:30.778Z,21.80
2022-10-09T12:16:59.762Z,21.80
2022-10-09T12:19:37.035Z,21.80
2022-10-09T12:22:13.831Z,21.80
2022-10-09T12:24:44.712Z,21.90
2022-10-09T12:27:20.206Z,21.90
2022-10-09T12:29:54.855Z,21.90
2022-10-09T12:32:29.479Z,21.90
2022-10-09T12:35:00.107Z,21.90
2022-10-09T12:37:35.187Z,21.90
2022-10-09T12:40:11.199Z,21.90
2022-10-09T12:42:39.419Z,21.90
2022-10-09T12:45:16.166Z,21.90
2022-10-09T12:47:44.528Z,21.90
2022-10-09T12:50:26.239Z,21.90
2022-10-09T12:52:57.384Z,21.90
2022-10-09T12:55:28.214Z,21.90
2022-10-09T12:57:59.813Z,21.90
2022-10-09T13:00:28.229Z,21.90
2022-10-09T13:02:57.772Z,21.90
2022-10-09T13:05:37.709Z,21.90
2022-10-09T13:08:07.212Z,21.90
2022-10-09T13:10:35.412Z,21.90
2022-10-09T13:13:03.712Z,21.90
2022-10-09T13:15:34.798Z,21.80
2022-10-09T13:18:14.674Z,21.80
2022-10-09T13:20:44.311Z,21.80
2022-10-09T13:23:29.172Z,21.80
2022-10-09T13:26:01.189Z,21.80
2022-10-09T13:28:32.112Z,21.80
2022-10-09T13:31:08.093Z,21.80
2022-10-09T13:33:36.500Z,21.80
2022-10-09T13:36:06.543Z,21.80
2022-10-09T13:38:35.655Z,21.80
2022-10-09T13:41:03.940Z,21.80
2022-10-09T13:43:32.192Z,21.80
2022-10-09T13:46:00.517Z,21.80
2022-10-09T13:48:29.580Z,21.80
2022-10-09T13:50:59.204Z,21.80
2022-10-09T13:53:29.046Z,21.80
2022-10-09T13:56:00.798Z,21.80
2022-10-09T13:58:29.654Z,21.80
2022-10-09T14:00:58.203Z,21.80
2022-10-09T14:03:26.431Z,21.70
2022-10-09T14:05:59.207Z,21.70
2022-10-09T14:08:28.765Z,21.70
2022-10-09T14:10:57.175Z,21.70
2022-10-09T14:13:25.378Z,21.70
2022-10-09T14:15:54.225Z,21.70
2022-10-09T14:18:22.494Z,21.70
2022-10-09T14:20:50.807Z,21.80
2022-10-09T14:23:18.994Z,21.70
2022-10-09T14:25:48.622Z,21.80
2022-10-09T14:28:16.843Z,21.80
2022-10-09T14:30:45.487Z,21.80
2022-10-09T14:33:13.738Z,21.80
2022-10-09T14:35:42.099Z,21.80
2022-10-09T14:38:10.276Z,21.80
2022-10-09T14:40:43.163Z,21.80
2022-10-09T14:43:13.100Z,21.80
2022-10-09T14:45:41.268Z,21.80
2022-10-09T14:48:09.432Z,21.80
2022-10-09T14:50:37.622Z,21.80
2022-10-09T14:53:05.781Z,21.80
2022-10-09T14:55:35.796Z,21.80
2022-10-09T14:58:03.978Z,21.80
2022-10-09T15:00:33.562Z,21.80
2022-10-09T15:03:01.764Z,21.80
2022-10-09T15:05:29.900Z,21.70
2022-10-09T15:07:58.050Z,21.70
2022-10-09T15:10:26.252Z,21.70
2022-10-09T15:12:54.418Z,21.70
2022-10-09T15:15:22.586Z,21.60
2022-10-09T15:17:52.514Z,21.60
2022-10-09T15:20:20.775Z,21.60
2022-10-09T15:22:48.984Z,21.60
2022-10-09T15:25:17.288Z,21.60
2022-10-09T15:27:45.498Z,21.60
2022-10-09T15:30:14.307Z,21.60
2022-10-09T15:32:42.876Z,21.60
2022-10-09T15:35:12.801Z,21.50
2022-10-09T15:37:41.087Z,21.60
2022-10-09T15:40:10.240Z,21.50
2022-10-09T15:42:41.378Z,21.50
2022-10-09T15:45:10.355Z,21.50
2022-10-09T15:47:50.758Z,21.50
2022-10-09T15:50:20.670Z,21.50
2022-10-09T15:52:49.185Z,21.50
2022-10-09T15:55:17.641Z,21.40
2022-10-09T15:57:45.798Z,21.40
2022-10-09T16:00:15.118Z,21.40
2022-10-09T16:02:43.313Z,21.30
2022-10-09T16:05:11.465Z,21.30
2022-10-09T16:07:41.438Z,21.20
2022-10-09T16:10:10.123Z,21.20
2022-10-09T16:12:38.301Z,21.20
2022-10-09T16:15:07.224Z,21.10
2022-10-09T16:17:35.355Z,21.10
2022-10-09T16:20:03.545Z,21.00
2022-10-09T16:22:31.802Z,21.00
2022-10-09T16:25:01.329Z,21.00
2022-10-09T16:27:29.508Z,20.90
2022-10-09T16:29:57.746Z,20.90
2022-10-09T16:32:25.978Z,20.80
2022-10-09T16:34:54.601Z,20.80
2022-10-09T16:37:23.144Z,20.70
2022-10-09T16:39:51.324Z,20.70
2022-10-09T16:42:20.938Z,20.60
2022-10-09T16:44:51.537Z,20.60
2022-10-09T16:47:19.766Z,20.60
2022-10-09T16:49:47.983Z,20.50
2022-10-09T16:52:16.249Z,20.50
2022-10-09T16:54:44.454Z,20.50
2022-10-09T16:57:12.586Z,20.40
2022-10-09T16:59:42.291Z,20.40
2022-10-09T17:02:12.779Z,20.30
2022-10-09T17:04:41.805Z,20.30
2022-10-09T17:07:10.801Z,20.20
2022-10-09T17:09:40.474Z,20.20
2022-10-09T17:12:10.113Z,20.10
2022-10-09T17:14:38.395Z,20.10
2022-10-09T17:17:10.216Z,20.10
2022-10-09T17:19:39.355Z,20.00
2022-10-09T17:22:07.933Z,20.00
2022-10-09T17:24:36.414Z,19.90
2022-10-09T17:27:08.999Z,19.90
2022-10-09T17:29:37.444Z,19.80
2022-10-09T17:32:09.336Z,19.80
2022-10-09T17:34:42.948Z,19.70
2022-10-09T17:37:11.401Z,19.70
2022-10-09T17:39:39.541Z,19.70
2022-10-09T17:42:07.777Z,19.60
2022-10-09T17:44:36.106Z,19.60
2022-10-09T17:47:05.394Z,19.60
2022-10-09T17:49:34.922Z,19.60
2022-10-09T17:52:03.180Z,19.50
2022-10-09T17:54:31.323Z,19.50
2022-10-09T17:57:00.294Z,19.40
2022-10-09T17:59:28.708Z,19.40
2022-10-09T18:01:56.888Z,19.60
2022-10-09T18:04:25.118Z,19.40
2022-10-09T18:06:54.701Z,19.40
2022-10-09T18:09:22.915Z,19.30
2022-10-09T18:11:51.152Z,19.20
2022-10-09T18:14:19.552Z,19.20
2022-10-09T18:16:47.818Z,19.20
2022-10-09T18:19:19.381Z,19.20
2022-10-09T18:21:49.234Z,19.10
2022-10-09T18:24:18.995Z,19.10
2022-10-09T18:26:47.230Z,19.00
2022-10-09T18:29:15.420Z,19.00
2022-10-09T18:31:43.726Z,18.90
2022-10-09T18:34:12.528Z,18.90
2022-10-09T18:36:40.808Z,18.80
2022-10-09T18:39:11.435Z,18.80
2022-10-09T18:41:41.286Z,18.70
2022-10-09T18:44:17.280Z,18.70
2022-10-09T18:46:49.025Z,18.70
2022-10-09T18:49:20.063Z,18.70
2022-10-09T18:51:49.740Z,18.60
2022-10-09T18:54:19.061Z,18.60
2022-10-09T18:56:48.914Z,18.60
2022-10-09T18:59:20.476Z,18.60
2022-10-09T19:01:48.803Z,18.50
2022-10-09T19:04:17.047Z,18.50
2022-10-09T19:06:45.437Z,18.50
2022-10-09T19:09:13.842Z,18.50
2022-10-09T19:11:42.033Z,18.50
2022-10-09T19:14:11.634Z,18.50
2022-10-09T19:16:39.827Z,18.50
2022-10-09T19:19:08.159Z,18.60
2022-10-09T19:21:36.464Z,18.60
2022-10-09T19:24:06.263Z,18.60
2022-10-09T19:26:35.393Z,18.60
2022-10-09T19:29:04.617Z,18.60
2022-10-09T19:31:34.230Z,18.70
2022-10-09T19:34:03.390Z,18.60
2022-10-09T19:36:34.342Z,18.60
2022-10-09T19:39:02.784Z,18.60
2022-10-09T19:41:31.024Z,18.60
2022-10-09T19:44:00.130Z,18.80
2022-10-09T19:46:28.740Z,18.60
2022-10-09T19:48:58.359Z,18.60
2022-10-09T19:51:28.051Z,18.60
2022-10-09T19:53:56.660Z,18.50
2022-10-09T19:56:27.191Z,18.30
2022-10-09T19:58:56.218Z,18.20
2022-10-09T20:01:26.156Z,18.10
2022-10-09T20:03:57.868Z,17.90
2022-10-09T20:06:26.508Z,17.80
2022-10-09T20:08:55.925Z,17.70
2022-10-09T20:11:24.214Z,17.70
2022-10-09T20:13:56.004Z,17.60
2022-10-09T20:16:27.882Z,17.50
2022-10-09T20:21:26.698Z,17.40
2022-10-09T20:23:57.003Z,17.30
2022-10-09T20:26:25.919Z,17.20
2022-10-09T20:28:54.860Z,17.20
2022-10-09T20:31:25.842Z,17.10
2022-10-09T20:33:55.289Z,17.00
2022-10-09T20:36:27.729Z,17.00
2022-10-09T20:38:57.291Z,17.00
2022-10-09T20:41:26.267Z,16.90
2022-10-09T20:43:55.386Z,16.90
2022-10-09T20:46:24.792Z,16.90
2022-10-09T20:48:53.798Z,16.80
2022-10-09T20:51:24.862Z,16.80
2022-10-09T20:53:55.791Z,16.80
2022-10-09T20:56:25.607Z,16.70
2022-10-09T20:58:53.845Z,16.70
2022-10-09T21:01:22.626Z,16.70
2022-10-09T21:03:51.027Z,16.60
2022-10-09T21:06:21.604Z,16.60
2022-10-09T21:08:51.491Z,16.60
2022-10-09T21:11:21.168Z,16.50
2022-10-09T21:13:50.354Z,16.50
2022-10-09T21:16:20.925Z,16.40
2022-10-09T21:18:49.782Z,16.40
2022-10-09T21:21:19.238Z,16.40
2022-10-09T21:23:50.732Z,16.40
2022-10-09T21:26:22.042Z,16.40
2022-10-09T21:28:54.261Z,16.40
2022-10-09T21:31:28.577Z,16.30
2022-10-09T21:33:58.181Z,16.30
2022-10-09T21:36:32.352Z,16.20
2022-10-09T21:39:00.658Z,16.20
2022-10-09T21:41:30.231Z,16.20
2022-10-09T21:43:58.414Z,16.20
2022-10-09T21:46:26.823Z,16.20
2022-10-09T21:48:55.050Z,16.20
2022-10-09T21:51:23.384Z,16.10
2022-10-09T21:53:51.560Z,16.10
2022-10-09T21:56:19.863Z,16.10
2022-10-09T21:58:49.596Z,16.10
2022-10-09T22:01:18.461Z,16.30
2022-10-09T22:03:47.160Z,16.10
2022-10-09T22:06:19.117Z,16.10
2022-10-09T22:08:47.960Z,16.20
2022-10-09T22:11:16.934Z,16.20
2022-10-09T22:13:45.785Z,16.10
2022-10-09T22:16:16.703Z,16.20
2022-10-09T22:18:45.025Z,16.20
2022-10-09T22:21:15.033Z,16.20
2022-10-09T22:23:43.587Z,16.20
2022-10-09T22:26:15.514Z,16.20
2022-10-09T22:28:43.721Z,16.20
2022-10-09T22:31:16.310Z,16.10
2022-10-09T22:33:45.043Z,16.20
2022-10-09T22:36:14.913Z,16.20
2022-10-09T22:38:44.166Z,16.20
2022-10-09T22:41:14.026Z,16.20
2022-10-09T22:43:44.064Z,16.20
2022-10-09T22:46:13.955Z,16.20
2022-10-09T22:48:44.943Z,16.20
2022-10-09T22:51:14.553Z,16.30
2022-10-09T22:53:43.223Z,16.20
2022-10-09T22:56:14.074Z,16.10
2022-10-09T22:58:42.292Z,16.10
2022-10-09T23:01:12.221Z,16.10
2022-10-09T23:03:40.438Z,16.10
2022-10-09T23:06:12.360Z,16.10
2022-10-09T23:08:42.532Z,16.10
2022-10-09T23:11:11.453Z,16.10
2022-10-09T23:13:40.041Z,16.10
2022-10-09T23:16:12.054Z,16.10
2022-10-09T23:18:41.075Z,16.10
2022-10-09T23:21:13.988Z,16.10
2022-10-09T23:23:43.132Z,16.00
2022-10-09T23:26:13.299Z,16.10
2022-10-09T23:28:42.214Z,16.10
2022-10-09T23:31:12.360Z,16.00
2022-10-09T23:33:41.152Z,16.00
2022-10-09T23:36:13.327Z,16.00
2022-10-09T23:38:41.833Z,16.10
2022-10-09T23:41:12.271Z,16.00
2022-10-09T23:43:42.462Z,16.00
2022-10-09T23:46:13.475Z,16.00
2022-10-09T23:48:41.663Z,16.00
2022-10-09T23:51:11.632Z,16.00
2022-10-09T23:53:39.817Z,16.00
2022-10-09T23:56:20.814Z,15.90
2022-10-09T23:58:49.476Z,15.90
